Time;durP1;ratioP1;P1;durP2;ratioP2;P2;SDS_P1;SDS_P2;PMS_P1;PMS_P2;Temp;Humidity;BMP_temperature;BMP_pressure;BME280_temperature;BME280_humidity;BME280_pressure;Samples;Min_cycle;Max_cycle;Signal;HPM_P1;HPM_P2
2022/05/16 01:45:11;;;;;;;;;;;11.40;99.90;;;;;;6161111;23;20526;-73
2022/05/16 01:47:37;;;;;;;;;;;11.40;99.90;;;;;;6160838;23;19995;-74
2022/05/16 01:50:02;;;;;;;;;;;11.50;99.90;;;;;;6161470;23;19952;-74
2022/05/16 01:52:28;;;;;;;;;;;11.40;99.90;;;;;;6161352;23;19931;-74
2022/05/16 01:54:53;;;;;;;;;;;11.40;99.90;;;;;;6161418;23;19931;-74
2022/05/16 01:57:19;;;;;;;;;;;11.40;99.90;;;;;;6161495;23;19924;-74
2022/05/16 01:59:44;;;;;;;;;;;11.40;99.90;;;;;;6160477;23;19920;-74
2022/05/16 02:02:10;;;;;;;;;;;11.60;99.90;;;;;;6187340;23;20333;-74
2022/05/16 02:04:38;;;;;;;;;;;11.50;99.90;;;;;;6161112;23;19924;-74
2022/05/16 02:07:06;;;;;;;;;;;11.40;99.90;;;;;;6186442;23;19927;-74
2022/05/16 02:09:32;;;;;;;;;;;11.40;99.90;;;;;;6160917;23;19920;-74
2022/05/16 02:11:57;;;;;;;;;;;11.40;99.90;;;;;;6188355;23;19927;-74
2022/05/16 02:14:23;;;;;;;;;;;11.40;99.90;;;;;;6186794;23;19975;-74
2022/05/16 02:16:49;;;;;;;;;;;11.40;99.90;;;;;;6161348;23;19926;-74
2022/05/16 02:19:18;;;;;;;;;;;11.40;99.90;;;;;;6186947;23;19999;-74
2022/05/16 02:24:40;;;;;;;;;;;11.40;99.90;;;;;;6162335;23;19995;-74
2022/05/16 02:27:12;;;;;;;;;;;11.40;99.90;;;;;;6161953;23;19928;-74
2022/05/16 02:29:38;;;;;;;;;;;11.40;99.90;;;;;;6187711;23;19924;-74
2022/05/16 02:32:04;;;;;;;;;;;11.40;99.90;;;;;;6162702;23;19920;-74
2022/05/16 02:34:32;;;;;;;;;;;11.50;99.90;;;;;;6162115;23;19921;-74
2022/05/16 02:36:58;;;;;;;;;;;11.60;99.90;;;;;;6161169;23;19916;-74
2022/05/16 04:30:10;;;;;;;;;;;11.90;99.90;;;;;;6185102;23;19926;-74
2022/05/16 04:32:36;;;;;;;;;;;11.80;99.90;;;;;;6180412;23;19991;-72
2022/05/16 04:35:02;;;;;;;;;;;11.90;99.90;;;;;;6185295;23;19920;-69
2022/05/16 04:37:32;;;;;;;;;;;11.90;99.90;;;;;;6158893;23;19924;-72
2022/05/16 04:40:02;;;;;;;;;;;12.00;99.90;;;;;;6159532;23;19920;-72
2022/05/16 04:42:44;;;;;;;;;;;12.00;99.90;;;;;;6185691;23;19924;-72
2022/05/16 04:45:20;;;;;;;;;;;12.10;99.90;;;;;;6159463;23;20333;-70
2022/05/16 04:47:46;;;;;;;;;;;12.20;99.90;;;;;;6159920;23;19930;-68
2022/05/16 04:50:13;;;;;;;;;;;12.30;99.90;;;;;;6185509;23;19925;-71
2022/05/16 04:52:39;;;;;;;;;;;12.40;99.90;;;;;;6160002;23;19927;-71
2022/05/16 04:55:05;;;;;;;;;;;12.50;99.90;;;;;;6160153;23;19920;-68
2022/05/16 04:57:30;;;;;;;;;;;12.60;99.90;;;;;;6158971;23;19956;-71
2022/05/16 04:59:56;;;;;;;;;;;12.70;99.90;;;;;;6184805;23;19952;-72
2022/05/16 05:02:23;;;;;;;;;;;12.80;99.90;;;;;;6157967;23;20256;-69
2022/05/16 05:04:49;;;;;;;;;;;13.00;99.90;;;;;;6186182;23;19917;-73
2022/05/16 05:07:26;;;;;;;;;;;13.20;99.90;;;;;;6159133;23;20356;-72
2022/05/16 05:15:22;;;;;;;;;;;13.30;99.90;;;;;;6185151;23;20449;-71
2022/05/16 05:17:48;;;;;;;;;;;13.40;99.90;;;;;;6158453;23;19996;-71
2022/05/16 05:20:14;;;;;;;;;;;13.40;99.90;;;;;;6159340;23;20333;-71
2022/05/16 05:22:49;;;;;;;;;;;13.40;99.90;;;;;;6185851;23;20402;-70
2022/05/16 05:25:19;;;;;;;;;;;13.40;99.90;;;;;;6158986;23;19972;-69
2022/05/16 05:27:46;;;;;;;;;;;13.40;99.90;;;;;;6159732;23;19928;-68
2022/05/16 05:30:13;;;;;;;;;;;13.40;99.90;;;;;;6161212;23;19920;-73
2022/05/16 05:32:39;;;;;;;;;;;13.40;99.90;;;;;;6186140;23;19948;-71
2022/05/16 05:35:06;;;;;;;;;;;13.60;99.90;;;;;;6160571;23;19916;-72
2022/05/16 05:37:32;;;;;;;;;;;13.40;99.90;;;;;;6161230;23;19924;-70
2022/05/16 05:40:01;;;;;;;;;;;13.30;99.90;;;;;;6187792;23;19955;-71
2022/05/16 05:42:27;;;;;;;;;;;13.30;99.90;;;;;;6161202;23;19975;-70
2022/05/16 05:44:53;;;;;;;;;;;13.30;99.90;;;;;;6160027;23;19966;-71
2022/05/16 05:47:19;;;;;;;;;;;13.40;99.90;;;;;;6161627;23;19924;-71
2022/05/16 05:49:44;;;;;;;;;;;13.40;99.90;;;;;;6161527;23;20318;-74
2022/05/16 05:52:10;;;;;;;;;;;13.50;99.90;;;;;;6185225;23;19924;-71
2022/05/16 05:54:39;;;;;;;;;;;13.70;99.90;;;;;;6160318;23;19921;-71
2022/05/16 05:57:07;;;;;;;;;;;13.80;99.90;;;;;;6159308;23;19979;-71
2022/05/16 05:59:32;;;;;;;;;;;14.00;99.90;;;;;;6186015;23;20284;-71
2022/05/16 06:01:58;;;;;;;;;;;15.10;99.90;;;;;;6187568;23;19920;-71
2022/05/16 06:04:23;;;;;;;;;;;14.20;99.90;;;;;;6160096;23;20133;-71
2022/05/16 06:06:49;;;;;;;;;;;14.40;99.90;;;;;;6159155;23;19991;-71
2022/05/16 06:09:14;;;;;;;;;;;14.50;99.90;;;;;;6186308;23;19927;-72
2022/05/16 06:11:40;;;;;;;;;;;14.70;99.90;;;;;;6160966;23;19920;-71
2022/05/16 06:14:08;;;;;;;;;;;14.80;99.90;;;;;;6186667;23;20241;-71
2022/05/16 06:16:33;;;;;;;;;;;14.90;99.90;;;;;;6160622;23;19927;-72
2022/05/16 06:18:59;;;;;;;;;;;15.00;99.90;;;;;;6160695;23;19920;-71
2022/05/16 06:21:24;;;;;;;;;;;15.10;99.90;;;;;;6187064;23;19928;-71
2022/05/16 06:23:50;;;;;;;;;;;15.30;99.90;;;;;;6187446;23;19927;-71
2022/05/16 06:26:15;;;;;;;;;;;15.30;99.90;;;;;;6186956;23;19927;-71
2022/05/16 06:28:41;;;;;;;;;;;15.30;99.90;;;;;;6186633;23;19924;-72
2022/05/16 06:31:07;;;;;;;;;;;15.30;99.90;;;;;;6161023;23;19996;-72
2022/05/16 06:33:33;;;;;;;;;;;15.40;99.90;;;;;;6187442;23;19920;-71
2022/05/16 06:35:59;;;;;;;;;;;15.40;99.90;;;;;;6159425;23;20347;-71
2022/05/16 06:38:29;;;;;;;;;;;15.50;99.90;;;;;;6187027;23;19927;-71
2022/05/16 06:40:55;;;;;;;;;;;15.60;99.90;;;;;;6160353;23;20328;-70
2022/05/16 06:43:22;;;;;;;;;;;15.80;99.90;;;;;;6160473;23;19947;-72
2022/05/16 06:45:47;;;;;;;;;;;16.00;99.90;;;;;;6187977;23;19924;-74
2022/05/16 06:48:13;;;;;;;;;;;16.20;99.90;;;;;;6159470;23;19920;-71
2022/05/16 06:50:39;;;;;;;;;;;16.30;99.90;;;;;;6161262;23;19927;-71
2022/05/16 06:53:05;;;;;;;;;;;16.50;99.90;;;;;;6160506;23;19952;-71
2022/05/16 06:55:31;;;;;;;;;;;16.70;99.90;;;;;;6186798;23;20337;-73
2022/05/16 06:57:57;;;;;;;;;;;17.00;99.90;;;;;;6188523;23;19921;-71
2022/05/16 07:00:24;;;;;;;;;;;17.00;99.90;;;;;;6188233;23;19980;-74
2022/05/16 07:02:50;;;;;;;;;;;17.10;99.90;;;;;;6186335;23;20276;-72
2022/05/16 07:05:15;;;;;;;;;;;17.30;99.90;;;;;;6160775;23;19920;-72
2022/05/16 07:07:41;;;;;;;;;;;17.10;99.90;;;;;;6160288;23;20284;-72
2022/05/16 07:10:07;;;;;;;;;;;17.70;99.90;;;;;;6159681;23;19999;-72
2022/05/16 07:12:35;;;;;;;;;;;17.30;99.90;;;;;;6186906;23;19979;-72
2022/05/16 07:15:01;;;;;;;;;;;17.40;99.90;;;;;;6160030;23;20317;-72
2022/05/16 07:17:29;;;;;;;;;;;17.50;99.90;;;;;;6185467;23;19920;-72
2022/05/16 07:19:55;;;;;;;;;;;17.60;99.90;;;;;;6159925;23;20223;-72
2022/05/16 07:22:24;;;;;;;;;;;17.80;99.90;;;;;;6159939;23;19935;-72
2022/05/16 07:24:51;;;;;;;;;;;18.10;99.90;;;;;;6186053;23;19921;-72
2022/05/16 07:30:05;;;;;;;;;;;19.80;99.90;;;;;;6155555;23;19925;-72
2022/05/16 07:32:34;;;;;;;;;;;20.50;98.80;;;;;;6156671;23;19920;-72
2022/05/16 07:35:25;;;;;;;;;;;20.90;98.60;;;;;;6154946;22;19960;-73
2022/05/16 07:41:16;;;;;;;;;;;21.30;98.30;;;;;;6153873;23;19925;-72
2022/05/16 07:43:53;;;;;;;;;;;21.80;96.40;;;;;;6125342;23;19920;-73
2022/05/16 07:46:22;;;;;;;;;;;22.10;96.00;;;;;;6154558;23;19928;-72
2022/05/16 07:48:47;;;;;;;;;;;23.40;96.60;;;;;;6156061;23;19920;-73
2022/05/16 07:51:14;;;;;;;;;;;22.70;95.60;;;;;;6156098;23;20215;-72
2022/05/16 07:53:39;;;;;;;;;;;22.90;95.30;;;;;;6155768;23;19978;-73
2022/05/16 07:56:05;;;;;;;;;;;23.30;95.50;;;;;;6156540;23;20338;-73
2022/05/16 07:58:31;;;;;;;;;;;24.20;95.20;;;;;;6156327;23;20036;-72
2022/05/16 08:00:57;;;;;;;;;;;24.00;92.90;;;;;;6155998;23;19921;-73
2022/05/16 08:03:26;;;;;;;;;;;23.70;93.60;;;;;;6156507;23;19904;-73
2022/05/16 08:05:52;;;;;;;;;;;23.50;92.90;;;;;;6155865;23;20396;-73
2022/05/16 08:11:04;;;;;;;;;;;22.80;93.80;;;;;;6158152;23;19921;-73
2022/05/16 08:13:30;;;;;;;;;;;23.30;93.10;;;;;;6156528;23;19921;-72
2022/05/16 08:15:56;;;;;;;;;;;23.50;93.10;;;;;;6157407;23;19996;-72
2022/05/16 08:18:22;;;;;;;;;;;24.20;92.70;;;;;;6155428;23;19928;-72
2022/05/16 08:20:47;;;;;;;;;;;24.60;92.00;;;;;;6156691;23;19922;-73
2022/05/16 08:23:14;;;;;;;;;;;25.00;92.30;;;;;;6156359;23;19920;-72
2022/05/16 08:25:40;;;;;;;;;;;25.30;91.80;;;;;;6158179;23;19912;-74
2022/05/16 08:28:06;;;;;;;;;;;25.40;92.00;;;;;;6156802;23;19920;-74
2022/05/16 08:30:32;;;;;;;;;;;25.90;92.00;;;;;;6156051;23;20242;-74
2022/05/16 08:32:59;;;;;;;;;;;26.40;90.60;;;;;;6156575;23;19916;-74
2022/05/16 08:35:25;;;;;;;;;;;26.50;89.60;;;;;;6157973;23;20027;-74
2022/05/16 08:40:54;;;;;;;;;;;25.70;89.60;;;;;;6156580;23;19925;-74
2022/05/16 08:43:42;;;;;;;;;;;25.30;90.70;;;;;;6158237;23;19928;-74
2022/05/16 08:46:14;;;;;;;;;;;25.00;90.50;;;;;;6157920;23;19921;-74
2022/05/16 08:48:43;;;;;;;;;;;24.70;91.20;;;;;;6157537;23;19975;-74
2022/05/16 08:51:12;;;;;;;;;;;24.60;90.90;;;;;;6158905;23;20360;-74
2022/05/16 08:53:47;;;;;;;;;;;24.50;91.10;;;;;;6156217;23;19928;-74
2022/05/16 08:56:17;;;;;;;;;;;24.30;91.60;;;;;;6155484;23;19975;-74
2022/05/16 08:58:50;;;;;;;;;;;24.20;91.70;;;;;;6157554;23;19921;-74
2022/05/16 09:01:21;;;;;;;;;;;24.30;91.30;;;;;;6157458;23;20636;-73
2022/05/16 09:03:47;;;;;;;;;;;24.20;91.60;;;;;;6158258;23;19921;-74
2022/05/16 09:06:21;;;;;;;;;;;24.70;92.20;;;;;;6160393;23;19931;-74
2022/05/16 09:08:51;;;;;;;;;;;25.00;92.40;;;;;;6159659;23;19925;-74
2022/05/16 09:11:25;;;;;;;;;;;25.70;91.10;;;;;;6159042;23;19921;-74
2022/05/16 09:14:00;;;;;;;;;;;26.00;90.50;;;;;;6159438;23;19921;-75
2022/05/16 09:16:38;;;;;;;;;;;26.50;91.20;;;;;;6156269;23;19920;-75
2022/05/16 09:19:16;;;;;;;;;;;27.10;90.30;;;;;;6158508;23;19927;-76
2022/05/16 09:22:01;;;;;;;;;;;27.60;88.10;;;;;;6159392;23;19921;-74
2022/05/16 09:24:33;;;;;;;;;;;27.80;87.00;;;;;;6156454;23;19963;-74
2022/05/16 09:27:02;;;;;;;;;;;27.60;87.30;;;;;;6158296;23;19956;-74
2022/05/16 09:29:35;;;;;;;;;;;27.50;86.40;;;;;;6157609;23;20015;-74
2022/05/16 09:32:04;;;;;;;;;;;27.10;85.90;;;;;;6157174;23;19988;-74
2022/05/16 09:34:30;;;;;;;;;;;26.50;87.70;;;;;;6157072;23;19932;-74
2022/05/16 09:36:56;;;;;;;;;;;25.90;89.00;;;;;;6156817;23;19920;-74
2022/05/16 09:39:24;;;;;;;;;;;25.70;89.90;;;;;;6158526;23;20234;-74
2022/05/16 09:41:59;;;;;;;;;;;25.40;90.30;;;;;;6159091;23;19967;-73
2022/05/16 09:44:41;;;;;;;;;;;25.10;90.60;;;;;;6159351;23;20338;-74
2022/05/16 09:47:16;;;;;;;;;;;25.10;90.70;;;;;;6159312;23;19932;-73
2022/05/16 09:49:42;;;;;;;;;;;25.20;90.70;;;;;;6158368;23;19921;-74
2022/05/16 09:52:14;;;;;;;;;;;25.10;90.10;;;;;;6157784;23;19969;-74
2022/05/16 09:54:42;;;;;;;;;;;24.90;90.50;;;;;;6160433;23;19945;-74
2022/05/16 09:57:15;;;;;;;;;;;25.10;91.10;;;;;;6158649;23;19928;-74
2022/05/16 09:59:51;;;;;;;;;;;25.10;90.70;;;;;;6157744;23;19921;-74
2022/05/16 10:02:25;;;;;;;;;;;24.90;91.60;;;;;;6156175;23;19947;-74
2022/05/16 10:04:55;;;;;;;;;;;24.70;91.10;;;;;;6156280;23;19962;-74
2022/05/16 10:07:22;;;;;;;;;;;24.50;91.30;;;;;;6155369;23;20039;-74
2022/05/16 10:09:49;;;;;;;;;;;24.20;92.00;;;;;;6159206;23;19953;-73
2022/05/16 10:12:17;;;;;;;;;;;24.20;91.90;;;;;;6155543;23;19928;-73
2022/05/16 10:14:43;;;;;;;;;;;24.10;91.40;;;;;;6158828;23;19921;-73
2022/05/16 10:17:12;;;;;;;;;;;24.20;91.80;;;;;;6157555;23;20385;-73
2022/05/16 10:19:39;;;;;;;;;;;23.60;92.50;;;;;;6158045;23;19932;-74
2022/05/16 10:22:10;;;;;;;;;;;23.50;92.60;;;;;;6158618;23;20000;-74
2022/05/16 10:24:38;;;;;;;;;;;23.40;92.70;;;;;;6157350;23;19921;-74
2022/05/16 10:27:06;;;;;;;;;;;23.30;93.50;;;;;;6156060;23;20396;-74
2022/05/16 10:29:34;;;;;;;;;;;23.20;93.60;;;;;;6157973;23;19921;-73
2022/05/16 10:34:53;;;;;;;;;;;23.40;93.50;;;;;;6155571;23;19921;-73
2022/05/16 10:37:20;;;;;;;;;;;23.50;93.40;;;;;;6157479;23;19955;-72
2022/05/16 10:39:49;;;;;;;;;;;23.70;93.60;;;;;;6158455;23;20306;-72
2022/05/16 10:42:17;;;;;;;;;;;24.00;93.80;;;;;;6156409;23;19924;-74
2022/05/16 10:44:48;;;;;;;;;;;24.00;93.80;;;;;;6158903;23;19923;-75
2022/05/16 10:47:22;;;;;;;;;;;24.30;93.10;;;;;;6155635;23;19963;-74
2022/05/16 10:49:53;;;;;;;;;;;24.50;93.40;;;;;;6157447;23;20329;-75
2022/05/16 10:52:33;;;;;;;;;;;24.70;93.10;;;;;;6157026;23;19992;-75
2022/05/16 10:54:58;;;;;;;;;;;24.90;92.70;;;;;;6155124;23;19916;-75
2022/05/16 10:57:44;;;;;;;;;;;25.40;92.70;;;;;;6159662;23;19921;-75
2022/05/16 11:00:19;;;;;;;;;;;25.10;91.80;;;;;;6141778;23;19948;-73
2022/05/16 11:03:00;;;;;;;;;;;25.10;91.90;;;;;;6155716;23;20004;-73
2022/05/16 11:05:38;;;;;;;;;;;25.30;91.90;;;;;;6156069;23;19900;-74
2022/05/16 11:08:09;;;;;;;;;;;25.40;92.20;;;;;;6158699;23;19927;-73
2022/05/16 11:10:37;;;;;;;;;;;25.50;92.10;;;;;;6158952;23;19923;-74
2022/05/16 11:13:05;;;;;;;;;;;25.70;92.70;;;;;;6158701;23;19951;-74
2022/05/16 11:15:40;;;;;;;;;;;25.90;92.40;;;;;;6155558;23;20019;-75
2022/05/16 11:18:06;;;;;;;;;;;26.20;92.40;;;;;;6157812;23;19948;-74
2022/05/16 11:20:43;;;;;;;;;;;26.30;91.40;;;;;;6158856;23;20019;-73
2022/05/16 11:23:28;;;;;;;;;;;26.10;91.30;;;;;;6156061;23;19921;-73
2022/05/16 11:26:02;;;;;;;;;;;26.00;92.00;;;;;;6158012;23;19916;-73
2022/05/16 11:29:17;;;;;;;;;;;25.90;91.50;;;;;;6132442;23;19925;-73
2022/05/16 12:29:41;;;;;;;;;;;24.80;93.60;;;;;;6187675;23;19927;-73
2022/05/16 12:32:10;;;;;;;;;;;25.10;93.10;;;;;;6187457;23;19920;-73
2022/05/16 12:34:42;;;;;;;;;;;25.60;93.50;;;;;;6186184;23;20265;-73
2022/05/16 12:37:10;;;;;;;;;;;25.00;92.90;;;;;;6188347;23;19927;-73
2022/05/16 12:39:41;;;;;;;;;;;25.00;93.30;;;;;;6188524;23;20050;-73
2022/05/16 12:42:26;;;;;;;;;;;25.10;93.10;;;;;;6163244;23;19980;-73
2022/05/16 12:45:01;;;;;;;;;;;25.20;93.00;;;;;;6189591;23;19920;-73
2022/05/16 12:47:27;;;;;;;;;;;25.40;92.60;;;;;;6188695;23;19920;-74
2022/05/16 12:50:03;;;;;;;;;;;25.30;93.30;;;;;;6188891;23;19943;-74
2022/05/16 12:52:28;;;;;;;;;;;25.30;93.50;;;;;;6188947;23;19924;-73
2022/05/16 12:55:16;;;;;;;;;;;25.30;93.50;;;;;;6188181;23;19939;-73
2022/05/16 12:57:50;;;;;;;;;;;25.30;93.20;;;;;;6188793;23;20281;-73
2022/05/16 13:00:21;;;;;;;;;;;25.00;93.40;;;;;;6162176;23;19920;-73
2022/05/16 13:02:51;;;;;;;;;;;25.10;93.80;;;;;;6162040;23;19924;-73
2022/05/16 13:05:23;;;;;;;;;;;25.00;94.00;;;;;;6189003;23;19916;-74
2022/05/16 13:08:07;;;;;;;;;;;25.30;94.50;;;;;;6186907;23;20329;-73
2022/05/16 13:10:39;;;;;;;;;;;25.90;93.90;;;;;;6189539;23;19988;-75
2022/05/16 13:13:12;;;;;;;;;;;26.30;92.70;;;;;;6163120;23;19944;-74
2022/05/16 13:15:46;;;;;;;;;;;26.30;93.50;;;;;;6187407;23;20292;-74
2022/05/16 13:18:16;;;;;;;;;;;26.40;93.10;;;;;;6188054;23;19924;-73
2022/05/16 13:20:44;;;;;;;;;;;26.40;93.30;;;;;;6189292;23;19920;-74
2022/05/16 13:23:13;;;;;;;;;;;26.50;93.40;;;;;;6161839;23;19995;-73
2022/05/16 13:31:10;;;;;;;;;;;26.70;93.50;;;;;;6187590;23;19927;-76
2022/05/16 13:33:37;;;;;;;;;;;26.60;93.50;;;;;;6162224;23;20333;-78
2022/05/16 13:36:15;;;;;;;;;;;26.40;93.50;;;;;;6162112;23;19920;-73
2022/05/16 13:38:41;;;;;;;;;;;25.90;93.90;;;;;;6188246;23;20337;-76
2022/05/16 13:41:12;;;;;;;;;;;25.10;94.70;;;;;;6187210;23;20230;-76
2022/05/16 13:43:38;;;;;;;;;;;24.70;95.40;;;;;;6161305;23;19955;-78
2022/05/16 13:46:05;;;;;;;;;;;24.50;95.80;;;;;;6161618;23;19927;-75
2022/05/16 13:48:31;;;;;;;;;;;24.30;96.40;;;;;;6161267;23;20221;-75
2022/05/16 13:50:58;;;;;;;;;;;24.40;96.60;;;;;;6186193;23;19921;-76
2022/05/16 13:53:26;;;;;;;;;;;24.30;97.20;;;;;;6162064;23;20337;-74
2022/05/16 13:55:56;;;;;;;;;;;24.20;97.40;;;;;;6188825;23;19971;-77
2022/05/16 13:58:28;;;;;;;;;;;24.40;97.30;;;;;;6187186;23;19921;-74
2022/05/16 14:01:12;;;;;;;;;;;24.20;97.60;;;;;;6161403;23;20344;-74
2022/05/16 14:03:39;;;;;;;;;;;24.20;97.50;;;;;;6161498;23;19974;-77
2022/05/16 14:06:04;;;;;;;;;;;24.10;97.90;;;;;;6160444;23;20360;-74
2022/05/16 14:08:39;;;;;;;;;;;24.00;97.90;;;;;;6187961;23;19920;-75
2022/05/16 14:11:06;;;;;;;;;;;23.90;98.20;;;;;;6161943;23;19943;-72
2022/05/16 14:13:33;;;;;;;;;;;23.80;98.90;;;;;;6151726;23;20281;-71
2022/05/16 14:16:07;;;;;;;;;;;23.80;98.80;;;;;;6158608;23;19921;-71
2022/05/16 14:18:47;;;;;;;;;;;23.80;98.70;;;;;;6159115;23;19947;-72
2022/05/16 14:21:14;;;;;;;;;;;23.60;99.10;;;;;;6187377;23;20222;-70
2022/05/16 14:23:42;;;;;;;;;;;23.60;99.30;;;;;;6159376;23;19924;-71
2022/05/16 14:26:10;;;;;;;;;;;23.80;99.20;;;;;;6184838;23;19924;-73
2022/05/16 14:28:42;;;;;;;;;;;24.20;98.80;;;;;;6159293;23;20355;-73
2022/05/16 14:31:19;;;;;;;;;;;24.50;98.70;;;;;;6186182;23;19920;-73
2022/05/16 14:33:54;;;;;;;;;;;24.80;98.20;;;;;;6184944;23;20351;-74
2022/05/16 14:36:25;;;;;;;;;;;24.90;98.20;;;;;;6160159;23;20249;-72
2022/05/16 14:38:52;;;;;;;;;;;25.20;97.60;;;;;;6186408;23;20315;-73
2022/05/16 14:41:21;;;;;;;;;;;25.00;98.10;;;;;;6157849;23;19982;-73
2022/05/16 14:44:03;;;;;;;;;;;24.90;98.60;;;;;;6185700;23;19920;-70
2022/05/16 14:46:50;;;;;;;;;;;24.40;98.50;;;;;;6158985;23;19955;-74
2022/05/16 14:49:17;;;;;;;;;;;24.70;98.30;;;;;;6185448;23;20004;-69
2022/05/16 14:51:45;;;;;;;;;;;24.50;98.40;;;;;;6185745;23;19943;-70
2022/05/16 14:54:16;;;;;;;;;;;24.40;98.80;;;;;;6181479;23;19928;-72
2022/05/16 14:56:42;;;;;;;;;;;24.30;99.20;;;;;;6184222;23;19924;-70
2022/05/16 14:59:08;;;;;;;;;;;24.10;99.10;;;;;;6183959;23;19959;-71
2022/05/16 15:04:17;;;;;;;;;;;23.70;99.40;;;;;;6184909;23;19920;-70
2022/05/16 15:06:43;;;;;;;;;;;23.50;99.80;;;;;;6183434;23;20247;-69
2022/05/16 15:09:11;;;;;;;;;;;23.60;99.70;;;;;;6184283;23;19947;-72
2022/05/16 15:11:48;;;;;;;;;;;23.00;99.90;;;;;;6186598;23;19966;-71
2022/05/16 15:14:18;;;;;;;;;;;22.90;99.90;;;;;;6186744;23;20354;-71
2022/05/16 15:16:43;;;;;;;;;;;22.60;99.90;;;;;;6159560;23;19920;-69
2022/05/16 15:19:09;;;;;;;;;;;22.40;99.90;;;;;;6186243;23;19928;-71
2022/05/16 15:21:37;;;;;;;;;;;22.40;99.90;;;;;;6159581;23;20322;-70
2022/05/16 15:24:04;;;;;;;;;;;22.20;99.90;;;;;;6159710;23;19999;-70
2022/05/16 15:26:32;;;;;;;;;;;22.00;99.90;;;;;;6186717;23;19959;-70
2022/05/16 15:28:58;;;;;;;;;;;21.70;99.90;;;;;;6157294;23;19920;-68
2022/05/16 15:31:24;;;;;;;;;;;21.50;99.90;;;;;;6157751;23;19920;-72
2022/05/16 15:33:50;;;;;;;;;;;21.60;99.90;;;;;;6159204;23;19963;-71
2022/05/16 15:36:16;;;;;;;;;;;21.60;99.90;;;;;;6157884;23;19921;-69
2022/05/16 15:38:41;;;;;;;;;;;21.40;99.90;;;;;;6184557;23;19920;-68
2022/05/16 15:41:07;;;;;;;;;;;21.50;99.90;;;;;;6183790;23;20355;-70
2022/05/16 15:43:34;;;;;;;;;;;21.70;99.90;;;;;;6156831;23;19927;-68
2022/05/16 15:46:10;;;;;;;;;;;21.30;99.90;;;;;;6184146;23;19921;-69
2022/05/16 15:48:36;;;;;;;;;;;21.20;99.90;;;;;;6186050;23;19920;-70
2022/05/16 15:51:02;;;;;;;;;;;21.10;99.90;;;;;;6183954;23;19928;-71
2022/05/16 15:53:27;;;;;;;;;;;21.00;99.90;;;;;;6159145;23;19931;-69
2022/05/16 15:55:53;;;;;;;;;;;20.80;99.90;;;;;;6186536;23;19928;-72
2022/05/16 15:58:18;;;;;;;;;;;20.90;99.90;;;;;;6185748;23;20367;-73
2022/05/16 16:00:48;;;;;;;;;;;20.60;99.90;;;;;;6159149;23;19970;-68
2022/05/16 16:09:08;;;;;;;;;;;20.00;99.90;;;;;;6159101;23;19921;-71
2022/05/16 16:11:33;;;;;;;;;;;19.90;99.90;;;;;;6183317;23;19999;-71
2022/05/16 16:13:59;;;;;;;;;;;19.70;99.90;;;;;;6186085;23;19945;-73
2022/05/16 16:16:26;;;;;;;;;;;19.50;99.90;;;;;;6160736;23;19916;-74
2022/05/16 16:18:52;;;;;;;;;;;19.60;99.90;;;;;;6185129;23;19954;-71
2022/05/16 16:21:19;;;;;;;;;;;19.50;99.90;;;;;;6184864;23;19925;-70
2022/05/16 16:23:44;;;;;;;;;;;19.50;99.90;;;;;;6185856;23;20277;-72
2022/05/16 16:26:10;;;;;;;;;;;19.50;99.90;;;;;;6185006;23;19920;-74
2022/05/16 16:28:35;;;;;;;;;;;19.40;99.90;;;;;;6160112;23;19987;-75
2022/05/16 16:31:01;;;;;;;;;;;19.40;99.90;;;;;;6179970;23;20289;-71
2022/05/16 16:33:29;;;;;;;;;;;19.30;99.90;;;;;;6182896;23;19921;-68
2022/05/16 16:35:55;;;;;;;;;;;19.30;99.90;;;;;;6185450;23;19924;-73
2022/05/16 16:38:24;;;;;;;;;;;19.20;99.90;;;;;;6184588;23;19921;-69
2022/05/16 16:40:54;;;;;;;;;;;19.20;99.90;;;;;;6182731;23;20277;-70
2022/05/16 16:43:19;;;;;;;;;;;19.30;99.90;;;;;;6184378;23;19923;-69
2022/05/16 16:45:47;;;;;;;;;;;19.20;99.90;;;;;;6182891;23;22239;-70
2022/05/16 16:48:13;;;;;;;;;;;19.10;99.90;;;;;;6185043;23;19924;-70
2022/05/16 16:50:39;;;;;;;;;;;19.20;99.90;;;;;;6159094;23;19959;-71
2022/05/16 16:58:54;;;;;;;;;;;19.20;99.90;;;;;;6071037;23;19995;-74
2022/05/16 17:01:20;;;;;;;;;;;19.10;99.90;;;;;;6068015;23;19964;-71
2022/05/16 17:03:45;;;;;;;;;;;19.00;99.90;;;;;;6112319;23;19924;-76
2022/05/16 17:06:11;;;;;;;;;;;19.00;99.90;;;;;;6159151;23;20118;-70
2022/05/16 17:08:37;;;;;;;;;;;18.90;99.90;;;;;;6158427;23;19915;-71
2022/05/16 17:11:03;;;;;;;;;;;19.00;99.90;;;;;;6186306;23;19920;-72
2022/05/16 17:13:31;;;;;;;;;;;18.80;99.90;;;;;;6185748;23;20025;-70
2022/05/16 17:15:58;;;;;;;;;;;18.70;99.90;;;;;;6158354;23;20313;-74
2022/05/16 17:18:24;;;;;;;;;;;18.70;99.90;;;;;;6159624;23;20344;-72
2022/05/16 17:20:50;;;;;;;;;;;18.60;99.90;;;;;;6158588;23;20363;-71
2022/05/16 17:23:16;;;;;;;;;;;18.50;99.90;;;;;;6157752;23;19925;-71
2022/05/16 17:25:42;;;;;;;;;;;18.40;99.90;;;;;;6159561;23;19922;-72
2022/05/16 17:28:08;;;;;;;;;;;18.40;99.90;;;;;;6154037;23;19921;-72
2022/05/16 17:30:34;;;;;;;;;;;18.40;99.90;;;;;;6156787;23;19983;-71
2022/05/16 17:33:02;;;;;;;;;;;18.40;99.90;;;;;;6156925;23;19920;-72
2022/05/16 17:35:29;;;;;;;;;;;18.30;99.90;;;;;;6155627;23;20491;-71
2022/05/16 17:37:55;;;;;;;;;;;18.80;99.90;;;;;;6157277;23;19992;-71
2022/05/16 17:40:20;;;;;;;;;;;18.20;99.90;;;;;;6155317;23;19960;-71
2022/05/16 17:42:46;;;;;;;;;;;18.10;99.90;;;;;;6156876;23;19927;-72
2022/05/16 17:45:12;;;;;;;;;;;18.10;99.90;;;;;;6157127;23;19928;-72
2022/05/16 17:47:38;;;;;;;;;;;18.10;99.90;;;;;;6156898;23;19924;-73
2022/05/16 17:50:06;;;;;;;;;;;18.10;99.90;;;;;;6156620;23;19920;-74
2022/05/16 17:52:33;;;;;;;;;;;18.10;99.90;;;;;;6156951;23;19948;-70
2022/05/16 17:55:01;;;;;;;;;;;18.00;99.90;;;;;;6155942;23;20051;-70
2022/05/16 17:57:27;;;;;;;;;;;18.00;99.90;;;;;;6155177;23;19957;-74
2022/05/16 17:59:52;;;;;;;;;;;17.90;99.90;;;;;;6157577;23;19921;-74
2022/05/16 18:02:22;;;;;;;;;;;17.90;99.90;;;;;;6157211;23;20338;-74
2022/05/16 18:04:48;;;;;;;;;;;17.80;99.90;;;;;;6156608;23;19975;-72
2022/05/16 18:07:14;;;;;;;;;;;17.80;99.90;;;;;;6156521;23;20261;-72
2022/05/16 18:09:43;;;;;;;;;;;17.70;99.90;;;;;;6152607;23;20353;-71
2022/05/16 18:14:53;;;;;;;;;;;17.70;99.90;;;;;;6156761;23;19920;-69
2022/05/16 18:17:19;;;;;;;;;;;17.60;99.90;;;;;;6153807;23;20260;-69
2022/05/16 18:19:45;;;;;;;;;;;17.60;99.90;;;;;;6153910;23;20317;-68
2022/05/16 18:22:11;;;;;;;;;;;17.50;99.90;;;;;;6153587;23;19952;-69
2022/05/16 18:24:41;;;;;;;;;;;17.40;99.90;;;;;;6149997;23;19967;-69
2022/05/16 18:27:07;;;;;;;;;;;17.30;99.90;;;;;;6155173;23;19920;-70
2022/05/16 18:29:33;;;;;;;;;;;17.30;99.90;;;;;;6154295;23;19971;-72
2022/05/16 18:32:01;;;;;;;;;;;17.20;99.90;;;;;;6155382;23;20031;-71
2022/05/16 18:34:27;;;;;;;;;;;17.20;99.90;;;;;;6155453;23;19925;-70
2022/05/16 18:36:52;;;;;;;;;;;17.20;99.90;;;;;;6155637;23;19924;-71
2022/05/16 18:39:21;;;;;;;;;;;17.30;99.90;;;;;;6153967;23;19979;-71
2022/05/16 18:52:49;;;;;;;;;;;17.00;99.90;;;;;;6155552;23;19920;-72
2022/05/16 18:55:14;;;;;;;;;;;16.90;99.90;;;;;;6156029;23;19983;-70
2022/05/16 18:57:40;;;;;;;;;;;16.80;99.90;;;;;;6155878;23;20396;-70
2022/05/16 19:00:09;;;;;;;;;;;16.80;99.90;;;;;;6154182;23;19968;-71
2022/05/16 19:02:36;;;;;;;;;;;16.90;99.90;;;;;;6153943;23;19927;-70
2022/05/16 19:05:10;;;;;;;;;;;16.90;99.90;;;;;;6155669;23;19920;-71
2022/05/16 19:07:36;;;;;;;;;;;16.80;99.90;;;;;;6154753;23;19930;-69
2022/05/16 19:10:02;;;;;;;;;;;16.80;99.90;;;;;;6152519;23;19931;-69
2022/05/16 19:12:28;;;;;;;;;;;16.80;99.90;;;;;;6153846;23;19987;-71
2022/05/16 19:14:54;;;;;;;;;;;16.80;99.90;;;;;;6155157;23;20329;-73
2022/05/16 19:17:25;;;;;;;;;;;16.80;99.90;;;;;;6152445;23;19921;-71
2022/05/16 19:19:51;;;;;;;;;;;16.60;99.90;;;;;;6154857;23;20003;-67
2022/05/16 19:22:17;;;;;;;;;;;16.60;99.90;;;;;;6153778;23;19962;-69
2022/05/16 19:24:43;;;;;;;;;;;16.60;99.90;;;;;;6154803;23;20293;-68
2022/05/16 19:27:09;;;;;;;;;;;16.60;99.90;;;;;;6155233;23;19920;-75
2022/05/16 19:32:18;;;;;;;;;;;16.70;99.90;;;;;;6160483;23;20002;-75
2022/05/16 19:34:44;;;;;;;;;;;16.70;99.90;;;;;;6186350;23;19928;-71
2022/05/16 19:37:11;;;;;;;;;;;16.60;99.90;;;;;;6183911;23;20400;-73
2022/05/16 19:39:40;;;;;;;;;;;16.50;99.90;;;;;;6185835;23;19920;-73
2022/05/16 19:42:07;;;;;;;;;;;16.50;99.90;;;;;;6181347;23;19959;-68
2022/05/16 19:44:34;;;;;;;;;;;16.40;99.90;;;;;;6155590;23;20064;-67
2022/05/16 19:47:00;;;;;;;;;;;16.50;99.90;;;;;;6152989;23;20007;-69
2022/05/16 19:49:26;;;;;;;;;;;16.50;99.90;;;;;;6153465;23;19968;-74
2022/05/16 19:51:51;;;;;;;;;;;16.30;99.90;;;;;;6155854;23;20226;-70
2022/05/16 19:54:17;;;;;;;;;;;16.40;99.90;;;;;;6154361;23;19935;-71
2022/05/16 19:56:47;;;;;;;;;;;16.40;99.90;;;;;;6153393;23;20237;-69